sensor_id;sensor_type;location;lat;lon;timestamp;pressure;altitude;pressure_sealevel;temperature;humidity
61870;BME280;47810;42.264;23.826;2023-02-10T00:00:51;95579.94;;;-8.00;67.44
61870;BME280;47810;42.264;23.826;2023-02-10T00:03:16;95576.66;;;-7.96;68.06
61870;BME280;47810;42.264;23.826;2023-02-10T00:05:42;95574.03;;;-7.99;67.67
61870;BME280;47810;42.264;23.826;2023-02-10T00:08:07;95581.97;;;-8.42;69.24
61870;BME280;47810;42.264;23.826;2023-02-10T00:10:33;95582.81;;;-8.16;69.22
61870;BME280;47810;42.264;23.826;2023-02-10T00:12:58;95585.59;;;-8.36;68.63
61870;BME280;47810;42.264;23.826;2023-02-10T00:15:24;95574.13;;;-8.22;69.25
61870;BME280;47810;42.264;23.826;2023-02-10T00:17:49;95577.91;;;-8.10;68.79
61870;BME280;47810;42.264;23.826;2023-02-10T00:20:15;95577.97;;;-8.34;69.80
61870;BME280;47810;42.264;23.826;2023-02-10T00:22:40;95580.22;;;-8.18;69.51
61870;BME280;47810;42.264;23.826;2023-02-10T00:25:06;95576.28;;;-8.08;69.28
61870;BME280;47810;42.264;23.826;2023-02-10T00:27:31;95569.69;;;-8.00;69.16
61870;BME280;47810;42.264;23.826;2023-02-10T00:29:57;95572.13;;;-7.78;67.67
61870;BME280;47810;42.264;23.826;2023-02-10T00:32:22;95568.66;;;-7.80;67.84
61870;BME280;47810;42.264;23.826;2023-02-10T00:34:49;95566.56;;;-7.91;67.96
61870;BME280;47810;42.264;23.826;2023-02-10T00:37:14;95568.25;;;-7.92;67.98
61870;BME280;47810;42.264;23.826;2023-02-10T00:39:40;95559.94;;;-7.85;68.64
61870;BME280;47810;42.264;23.826;2023-02-10T00:42:05;95566.34;;;-7.99;68.62
61870;BME280;47810;42.264;23.826;2023-02-10T00:44:31;95555.47;;;-7.90;68.43
61870;BME280;47810;42.264;23.826;2023-02-10T00:46:57;95559.66;;;-7.67;67.57
61870;BME280;47810;42.264;23.826;2023-02-10T00:49:23;95554.72;;;-7.88;67.63
61870;BME280;47810;42.264;23.826;2023-02-10T00:51:49;95552.69;;;-7.98;67.91
61870;BME280;47810;42.264;23.826;2023-02-10T00:54:15;95549.34;;;-7.95;67.95
61870;BME280;47810;42.264;23.826;2023-02-10T00:56:40;95550.56;;;-8.11;68.10
61870;BME280;47810;42.264;23.826;2023-02-10T00:59:06;95543.16;;;-8.02;68.10
61870;BME280;47810;42.264;23.826;2023-02-10T01:01:32;95550.69;;;-8.32;68.96
61870;BME280;47810;42.264;23.826;2023-02-10T01:03:57;95555.25;;;-8.24;69.34
61870;BME280;47810;42.264;23.826;2023-02-10T01:06:23;95550.03;;;-8.27;69.09
61870;BME280;47810;42.264;23.826;2023-02-10T01:08:48;95558.16;;;-8.40;69.06
61870;BME280;47810;42.264;23.826;2023-02-10T01:11:14;95556.91;;;-8.51;69.86
61870;BME280;47810;42.264;23.826;2023-02-10T01:13:40;95558.38;;;-8.32;69.86
61870;BME280;47810;42.264;23.826;2023-02-10T01:16:09;95556.78;;;-8.29;69.52
61870;BME280;47810;42.264;23.826;2023-02-10T01:18:36;95554.94;;;-8.07;68.68
61870;BME280;47810;42.264;23.826;2023-02-10T01:21:05;95552.69;;;-8.24;68.62
61870;BME280;47810;42.264;23.826;2023-02-10T01:23:32;95548.69;;;-8.15;68.91
61870;BME280;47810;42.264;23.826;2023-02-10T01:26:01;95551.66;;;-8.29;69.30
61870;BME280;47810;42.264;23.826;2023-02-10T01:28:26;95552.59;;;-8.27;69.06
61870;BME280;47810;42.264;23.826;2023-02-10T01:30:52;95543.75;;;-8.36;68.92
61870;BME280;47810;42.264;23.826;2023-02-10T01:33:18;95541.03;;;-8.41;68.96
61870;BME280;47810;42.264;23.826;2023-02-10T01:35:43;95550.06;;;-8.52;69.55
61870;BME280;47810;42.264;23.826;2023-02-10T01:38:09;95544.56;;;-8.87;70.66
61870;BME280;47810;42.264;23.826;2023-02-10T01:40:34;95544.09;;;-8.51;70.12
61870;BME280;47810;42.264;23.826;2023-02-10T01:43:00;95543.00;;;-8.59;70.30
61870;BME280;47810;42.264;23.826;2023-02-10T01:45:32;95539.69;;;-8.81;70.65
61870;BME280;47810;42.264;23.826;2023-02-10T01:47:58;95533.53;;;-8.60;70.29
61870;BME280;47810;42.264;23.826;2023-02-10T01:50:27;95531.97;;;-8.82;72.07
61870;BME280;47810;42.264;23.826;2023-02-10T01:52:54;95527.91;;;-9.00;71.49
61870;BME280;47810;42.264;23.826;2023-02-10T01:55:20;95531.13;;;-8.81;71.41
61870;BME280;47810;42.264;23.826;2023-02-10T01:57:47;95526.38;;;-8.71;71.46
61870;BME280;47810;42.264;23.826;2023-02-10T02:00:14;95527.13;;;-8.49;70.86
61870;BME280;47810;42.264;23.826;2023-02-10T02:02:40;95517.94;;;-8.42;70.46
61870;BME280;47810;42.264;23.826;2023-02-10T02:05:16;95520.56;;;-8.66;71.23
61870;BME280;47810;42.264;23.826;2023-02-10T02:07:43;95520.81;;;-8.59;71.29
61870;BME280;47810;42.264;23.826;2023-02-10T02:10:08;95513.84;;;-8.37;70.92
61870;BME280;47810;42.264;23.826;2023-02-10T02:12:55;95503.09;;;-8.26;70.31
61870;BME280;47810;42.264;23.826;2023-02-10T02:20:30;95490.75;;;-8.39;70.55
61870;BME280;47810;42.264;23.826;2023-02-10T02:23:10;95488.66;;;-8.51;70.63
61870;BME280;47810;42.264;23.826;2023-02-10T03:44:10;95462.84;;;-8.30;71.20
61870;BME280;47810;42.264;23.826;2023-02-10T03:46:35;95466.91;;;-8.36;71.47
61870;BME280;47810;42.264;23.826;2023-02-10T03:49:02;95466.81;;;-8.12;70.10
61870;BME280;47810;42.264;23.826;2023-02-10T03:51:28;95460.50;;;-8.22;69.27
61870;BME280;47810;42.264;23.826;2023-02-10T03:53:54;95458.38;;;-8.35;69.62
61870;BME280;47810;42.264;23.826;2023-02-10T03:56:19;95459.28;;;-8.62;70.38
61870;BME280;47810;42.264;23.826;2023-02-10T03:58:45;95450.41;;;-8.46;70.91
61870;BME280;47810;42.264;23.826;2023-02-10T04:01:15;95452.41;;;-8.63;70.93
61870;BME280;47810;42.264;23.826;2023-02-10T04:03:42;95444.47;;;-8.71;71.30
61870;BME280;47810;42.264;23.826;2023-02-10T04:06:09;95442.53;;;-8.52;71.01
61870;BME280;47810;42.264;23.826;2023-02-10T04:08:35;95441.31;;;-8.35;70.69
61870;BME280;47810;42.264;23.826;2023-02-10T04:11:00;95439.66;;;-8.34;70.75
61870;BME280;47810;42.264;23.826;2023-02-10T04:13:26;95434.94;;;-8.49;70.45
61870;BME280;47810;42.264;23.826;2023-02-10T04:16:04;95433.47;;;-8.41;70.42
61870;BME280;47810;42.264;23.826;2023-02-10T04:18:31;95437.22;;;-8.30;70.00
61870;BME280;47810;42.264;23.826;2023-02-10T04:20:59;95438.28;;;-8.23;69.64
61870;BME280;47810;42.264;23.826;2023-02-10T04:23:28;95436.13;;;-8.38;70.09
61870;BME280;47810;42.264;23.826;2023-02-10T04:25:54;95435.53;;;-8.29;70.15
61870;BME280;47810;42.264;23.826;2023-02-10T04:28:20;95436.66;;;-8.21;70.15
61870;BME280;47810;42.264;23.826;2023-02-10T04:30:49;95434.91;;;-8.22;69.95
61870;BME280;47810;42.264;23.826;2023-02-10T04:33:15;95436.78;;;-8.16;69.29
61870;BME280;47810;42.264;23.826;2023-02-10T04:35:40;95436.06;;;-8.12;69.76
61870;BME280;47810;42.264;23.826;2023-02-10T04:38:06;95432.59;;;-8.14;69.23
61870;BME280;47810;42.264;23.826;2023-02-10T04:40:31;95430.94;;;-8.12;69.80
61870;BME280;47810;42.264;23.826;2023-02-10T04:42:57;95436.66;;;-8.21;69.77
61870;BME280;47810;42.264;23.826;2023-02-10T04:45:22;95437.53;;;-8.21;69.83
61870;BME280;47810;42.264;23.826;2023-02-10T04:47:48;95436.16;;;-8.09;69.61
61870;BME280;47810;42.264;23.826;2023-02-10T04:50:13;95439.94;;;-7.98;69.17
61870;BME280;47810;42.264;23.826;2023-02-10T04:52:39;95438.53;;;-7.87;69.14
61870;BME280;47810;42.264;23.826;2023-02-10T04:55:04;95443.66;;;-7.87;69.06
61870;BME280;47810;42.264;23.826;2023-02-10T04:57:30;95445.25;;;-7.92;69.18
61870;BME280;47810;42.264;23.826;2023-02-10T04:59:55;95451.72;;;-8.03;69.09
61870;BME280;47810;42.264;23.826;2023-02-10T05:02:21;95448.91;;;-8.39;69.70
61870;BME280;47810;42.264;23.826;2023-02-10T05:04:46;95457.75;;;-8.57;70.32
61870;BME280;47810;42.264;23.826;2023-02-10T05:07:12;95455.63;;;-8.69;70.96
61870;BME280;47810;42.264;23.826;2023-02-10T05:09:37;95450.97;;;-8.55;70.66
61870;BME280;47810;42.264;23.826;2023-02-10T05:27:56;95454.06;;;-8.38;69.88
61870;BME280;47810;42.264;23.826;2023-02-10T05:30:22;95464.38;;;-8.35;69.73
61870;BME280;47810;42.264;23.826;2023-02-10T05:32:47;95465.97;;;-8.40;69.45
61870;BME280;47810;42.264;23.826;2023-02-10T05:35:13;95465.41;;;-8.30;69.60
61870;BME280;47810;42.264;23.826;2023-02-10T05:37:38;95476.84;;;-8.18;69.50
61870;BME280;47810;42.264;23.826;2023-02-10T05:40:04;95474.91;;;-8.26;68.98
61870;BME280;47810;42.264;23.826;2023-02-10T05:42:30;95479.06;;;-8.29;69.73
61870;BME280;47810;42.264;23.826;2023-02-10T05:44:55;95484.22;;;-8.56;70.44
61870;BME280;47810;42.264;23.826;2023-02-10T05:47:21;95480.25;;;-8.47;69.99
61870;BME280;47810;42.264;23.826;2023-02-10T05:49:46;95483.25;;;-8.84;70.29
61870;BME280;47810;42.264;23.826;2023-02-10T05:52:12;95489.34;;;-8.80;70.57
61870;BME280;47810;42.264;23.826;2023-02-10T05:54:38;95485.63;;;-8.64;70.24
61870;BME280;47810;42.264;23.826;2023-02-10T05:57:05;95491.06;;;-8.81;70.86
61870;BME280;47810;42.264;23.826;2023-02-10T05:59:31;95488.28;;;-8.87;72.10
61870;BME280;47810;42.264;23.826;2023-02-10T06:01:56;95484.25;;;-8.80;72.15
61870;BME280;47810;42.264;23.826;2023-02-10T06:04:22;95490.94;;;-8.84;72.54
61870;BME280;47810;42.264;23.826;2023-02-10T06:06:48;95490.13;;;-8.83;72.86
61870;BME280;47810;42.264;23.826;2023-02-10T06:09:13;95497.59;;;-8.63;72.35
61870;BME280;47810;42.264;23.826;2023-02-10T06:11:40;95496.50;;;-8.46;71.27
61870;BME280;47810;42.264;23.826;2023-02-10T06:14:06;95491.75;;;-8.34;70.94
61870;BME280;47810;42.264;23.826;2023-02-10T06:19:38;95496.38;;;-8.22;70.57
61870;BME280;47810;42.264;23.826;2023-02-10T06:22:05;95500.94;;;-8.13;69.86
61870;BME280;47810;42.264;23.826;2023-02-10T06:24:31;95494.28;;;-8.08;69.77
61870;BME280;47810;42.264;23.826;2023-02-10T06:26:56;95503.69;;;-8.07;69.37
61870;BME280;47810;42.264;23.826;2023-02-10T06:29:22;95499.41;;;-8.08;69.71
61870;BME280;47810;42.264;23.826;2023-02-10T06:31:48;95497.84;;;-8.03;69.49
61870;BME280;47810;42.264;23.826;2023-02-10T06:34:13;95501.44;;;-7.98;69.22
61870;BME280;47810;42.264;23.826;2023-02-10T06:36:39;95511.69;;;-7.98;69.11
61870;BME280;47810;42.264;23.826;2023-02-10T06:39:05;95511.88;;;-7.92;68.92
61870;BME280;47810;42.264;23.826;2023-02-10T06:41:30;95510.13;;;-7.93;68.75
61870;BME280;47810;42.264;23.826;2023-02-10T06:43:56;95506.47;;;-8.01;69.66
61870;BME280;47810;42.264;23.826;2023-02-10T06:46:21;95514.28;;;-7.97;69.42
61870;BME280;47810;42.264;23.826;2023-02-10T06:48:47;95520.38;;;-8.20;69.89
61870;BME280;47810;42.264;23.826;2023-02-10T06:51:13;95515.44;;;-8.14;69.93
61870;BME280;47810;42.264;23.826;2023-02-10T06:53:38;95519.34;;;-8.25;70.18
61870;BME280;47810;42.264;23.826;2023-02-10T06:56:04;95516.06;;;-8.21;71.47
61870;BME280;47810;42.264;23.826;2023-02-10T06:58:29;95518.56;;;-8.23;70.81
61870;BME280;47810;42.264;23.826;2023-02-10T07:00:55;95517.94;;;-8.15;70.72
61870;BME280;47810;42.264;23.826;2023-02-10T07:03:21;95521.34;;;-8.16;70.82
61870;BME280;47810;42.264;23.826;2023-02-10T07:05:46;95522.97;;;-8.18;71.19
61870;BME280;47810;42.264;23.826;2023-02-10T07:08:12;95519.81;;;-8.11;71.44
61870;BME280;47810;42.264;23.826;2023-02-10T07:10:37;95525.31;;;-7.99;70.99
61870;BME280;47810;42.264;23.826;2023-02-10T07:13:03;95517.47;;;-8.04;71.06
61870;BME280;47810;42.264;23.826;2023-02-10T07:15:28;95518.44;;;-8.00;71.01
61870;BME280;47810;42.264;23.826;2023-02-10T07:17:54;95528.88;;;-7.94;70.61
61870;BME280;47810;42.264;23.826;2023-02-10T07:20:20;95527.19;;;-7.93;71.79
61870;BME280;47810;42.264;23.826;2023-02-10T07:22:46;95527.56;;;-7.83;71.98
61870;BME280;47810;42.264;23.826;2023-02-10T07:25:12;95528.03;;;-7.94;72.10
61870;BME280;47810;42.264;23.826;2023-02-10T07:27:37;95529.06;;;-7.89;71.45
61870;BME280;47810;42.264;23.826;2023-02-10T07:30:03;95530.91;;;-7.84;71.52
61870;BME280;47810;42.264;23.826;2023-02-10T07:32:28;95527.91;;;-7.70;71.69
61870;BME280;47810;42.264;23.826;2023-02-10T07:34:54;95531.78;;;-7.56;71.64
61870;BME280;47810;42.264;23.826;2023-02-10T07:37:19;95530.16;;;-7.54;71.23
61870;BME280;47810;42.264;23.826;2023-02-10T07:39:45;95532.06;;;-7.47;71.47
61870;BME280;47810;42.264;23.826;2023-02-10T07:42:10;95519.16;;;-7.50;70.76
61870;BME280;47810;42.264;23.826;2023-02-10T07:44:36;95519.34;;;-7.14;69.68
61870;BME280;47810;42.264;23.826;2023-02-10T07:47:02;95515.22;;;-7.09;69.33
61870;BME280;47810;42.264;23.826;2023-02-10T07:49:27;95519.84;;;-7.26;69.66
61870;BME280;47810;42.264;23.826;2023-02-10T07:51:54;95517.28;;;-7.26;69.79
61870;BME280;47810;42.264;23.826;2023-02-10T07:54:20;95521.66;;;-7.23;69.94
61870;BME280;47810;42.264;23.826;2023-02-10T07:56:45;95514.44;;;-7.06;69.53
61870;BME280;47810;42.264;23.826;2023-02-10T07:59:11;95517.22;;;-6.98;68.94
61870;BME280;47810;42.264;23.826;2023-02-10T08:01:36;95517.41;;;-6.92;69.20
61870;BME280;47810;42.264;23.826;2023-02-10T08:04:07;95508.00;;;-6.92;69.60
61870;BME280;47810;42.264;23.826;2023-02-10T08:06:32;95499.22;;;-6.68;69.61
61870;BME280;47810;42.264;23.826;2023-02-10T08:08:58;95506.63;;;-6.79;69.12
61870;BME280;47810;42.264;23.826;2023-02-10T08:11:23;95498.06;;;-6.80;68.94
61870;BME280;47810;42.264;23.826;2023-02-10T08:13:49;95501.59;;;-6.74;68.69
61870;BME280;47810;42.264;23.826;2023-02-10T08:16:15;95505.91;;;-6.42;69.18
61870;BME280;47810;42.264;23.826;2023-02-10T08:18:40;95500.38;;;-6.24;68.32
61870;BME280;47810;42.264;23.826;2023-02-10T08:21:06;95495.47;;;-6.48;67.81
61870;BME280;47810;42.264;23.826;2023-02-10T08:23:33;95494.97;;;-6.35;68.21
61870;BME280;47810;42.264;23.826;2023-02-10T08:40:59;95486.03;;;-5.39;65.04
61870;BME280;47810;42.264;23.826;2023-02-10T08:43:25;95491.63;;;-5.17;65.60
61870;BME280;47810;42.264;23.826;2023-02-10T08:45:50;95489.88;;;-4.77;64.32
61870;BME280;47810;42.264;23.826;2023-02-10T08:48:16;95494.53;;;-4.58;63.83
61870;BME280;47810;42.264;23.826;2023-02-10T08:50:42;95489.00;;;-4.32;62.75
61870;BME280;47810;42.264;23.826;2023-02-10T08:53:07;95490.25;;;-4.09;63.50
61870;BME280;47810;42.264;23.826;2023-02-10T08:55:33;95494.13;;;-3.82;62.70
61870;BME280;47810;42.264;23.826;2023-02-10T08:57:58;95491.16;;;-3.51;62.22
61870;BME280;47810;42.264;23.826;2023-02-10T09:00:24;95487.97;;;-3.34;60.45
61870;BME280;47810;42.264;23.826;2023-02-10T09:02:50;95496.06;;;-3.11;60.86
61870;BME280;47810;42.264;23.826;2023-02-10T09:05:16;95490.28;;;-2.92;60.45
61870;BME280;47810;42.264;23.826;2023-02-10T09:07:41;95485.81;;;-2.26;57.14
61870;BME280;47810;42.264;23.826;2023-02-10T09:10:08;95476.59;;;-2.01;57.61
61870;BME280;47810;42.264;23.826;2023-02-10T09:12:36;95476.09;;;-1.52;54.54
61870;BME280;47810;42.264;23.826;2023-02-10T09:15:02;95474.91;;;-1.93;55.02
61870;BME280;47810;42.264;23.826;2023-02-10T09:17:28;95473.63;;;-1.37;53.84
61870;BME280;47810;42.264;23.826;2023-02-10T09:19:53;95473.69;;;-1.25;56.12
61870;BME280;47810;42.264;23.826;2023-02-10T09:22:19;95475.66;;;-0.75;52.53
61870;BME280;47810;42.264;23.826;2023-02-10T09:24:44;95472.22;;;-0.69;55.88
61870;BME280;47810;42.264;23.826;2023-02-10T09:27:12;95469.78;;;-0.28;53.87
61870;BME280;47810;42.264;23.826;2023-02-10T09:29:38;95462.91;;;0.17;49.41
61870;BME280;47810;42.264;23.826;2023-02-10T09:32:03;95466.34;;;-0.11;53.80
61870;BME280;47810;42.264;23.826;2023-02-10T09:34:29;95460.31;;;0.27;53.90
61870;BME280;47810;42.264;23.826;2023-02-10T09:36:56;95462.00;;;0.66;52.59
61870;BME280;47810;42.264;23.826;2023-02-10T09:39:23;95450.72;;;0.90;47.96
61870;BME280;47810;42.264;23.826;2023-02-10T09:44:36;95447.31;;;0.31;49.16
61870;BME280;47810;42.264;23.826;2023-02-10T09:52:02;95449.72;;;1.29;50.58
61870;BME280;47810;42.264;23.826;2023-02-10T09:54:32;95433.09;;;1.59;50.06
61870;BME280;47810;42.264;23.826;2023-02-10T09:57:02;95434.72;;;1.76;49.07
61870;BME280;47810;42.264;23.826;2023-02-10T09:59:29;95435.84;;;1.32;47.46
61870;BME280;47810;42.264;23.826;2023-02-10T10:01:56;95429.66;;;1.51;49.45
61870;BME280;47810;42.264;23.826;2023-02-10T10:04:23;95426.00;;;1.83;48.00
61870;BME280;47810;42.264;23.826;2023-02-10T10:06:51;95420.38;;;2.41;47.37
61870;BME280;47810;42.264;23.826;2023-02-10T10:09:37;95413.06;;;2.77;46.26
61870;BME280;47810;42.264;23.826;2023-02-10T10:12:07;95407.66;;;2.95;47.10
61870;BME280;47810;42.264;23.826;2023-02-10T10:14:33;95409.53;;;2.81;44.47
61870;BME280;47810;42.264;23.826;2023-02-10T10:19:45;95404.56;;;3.34;42.51
61870;BME280;47810;42.264;23.826;2023-02-10T10:29:52;95386.38;;;2.52;45.12
61870;BME280;47810;42.264;23.826;2023-02-10T10:32:24;95378.63;;;2.44;47.21
61870;BME280;47810;42.264;23.826;2023-02-10T10:34:53;95380.66;;;2.98;42.95
61870;BME280;47810;42.264;23.826;2023-02-10T10:37:20;95380.94;;;3.47;45.12
61870;BME280;47810;42.264;23.826;2023-02-10T10:39:48;95368.13;;;3.88;42.02
61870;BME280;47810;42.264;23.826;2023-02-10T10:44:44;95368.03;;;3.95;42.88
61870;BME280;47810;42.264;23.826;2023-02-10T10:49:36;95365.41;;;4.50;41.73
61870;BME280;47810;42.264;23.826;2023-02-10T10:52:02;95359.88;;;4.65;42.28
61870;BME280;47810;42.264;23.826;2023-02-10T10:54:38;95346.91;;;5.04;40.18
61870;BME280;47810;42.264;23.826;2023-02-10T10:57:05;95350.78;;;4.86;41.26
61870;BME280;47810;42.264;23.826;2023-02-10T10:59:38;95350.31;;;4.64;37.52
61870;BME280;47810;42.264;23.826;2023-02-10T11:02:25;95351.63;;;4.38;41.46
61870;BME280;47810;42.264;23.826;2023-02-10T11:05:04;95344.13;;;5.13;41.06
61870;BME280;47810;42.264;23.826;2023-02-10T11:07:31;95347.69;;;4.64;38.97
61870;BME280;47810;42.264;23.826;2023-02-10T11:09:57;95340.03;;;5.00;37.95
61870;BME280;47810;42.264;23.826;2023-02-10T11:12:24;95350.16;;;4.72;39.79
61870;BME280;47810;42.264;23.826;2023-02-10T11:14:52;95339.84;;;5.10;37.02
61870;BME280;47810;42.264;23.826;2023-02-10T11:17:31;95335.41;;;5.12;36.67
61870;BME280;47810;42.264;23.826;2023-02-10T11:22:37;95326.41;;;5.26;41.26
61870;BME280;47810;42.264;23.826;2023-02-10T11:25:16;95320.69;;;5.88;39.22
61870;BME280;47810;42.264;23.826;2023-02-10T11:27:53;95323.34;;;6.23;40.57
61870;BME280;47810;42.264;23.826;2023-02-10T11:30:23;95317.03;;;6.96;38.60
61870;BME280;47810;42.264;23.826;2023-02-10T11:32:49;95313.09;;;6.80;36.52
61870;BME280;47810;42.264;23.826;2023-02-10T11:35:15;95309.59;;;6.81;35.36
61870;BME280;47810;42.264;23.826;2023-02-10T11:37:41;95310.72;;;6.70;37.19
61870;BME280;47810;42.264;23.826;2023-02-10T11:42:46;95302.53;;;6.83;35.40
61870;BME280;47810;42.264;23.826;2023-02-10T11:45:16;95301.75;;;7.10;35.03
61870;BME280;47810;42.264;23.826;2023-02-10T11:47:42;95299.66;;;7.21;34.52
61870;BME280;47810;42.264;23.826;2023-02-10T11:50:21;95303.50;;;6.79;35.63
61870;BME280;47810;42.264;23.826;2023-02-10T11:52:47;95298.47;;;7.02;35.63
61870;BME280;47810;42.264;23.826;2023-02-10T11:55:13;95289.06;;;7.24;36.86
61870;BME280;47810;42.264;23.826;2023-02-10T11:57:56;95286.09;;;6.76;32.23
61870;BME280;47810;42.264;23.826;2023-02-10T12:00:57;95290.22;;;6.85;34.30
61870;BME280;47810;42.264;23.826;2023-02-10T12:03:30;95278.84;;;7.45;34.99
61870;BME280;47810;42.264;23.826;2023-02-10T12:06:02;95265.75;;;7.98;34.29
61870;BME280;47810;42.264;23.826;2023-02-10T12:26:23;95249.97;;;8.25;31.99
61870;BME280;47810;42.264;23.826;2023-02-10T12:34:08;95247.22;;;8.28;32.98
61870;BME280;47810;42.264;23.826;2023-02-10T12:52:55;95231.28;;;8.82;29.19
61870;BME280;47810;42.264;23.826;2023-02-10T12:56:08;95232.25;;;8.56;33.29
61870;BME280;47810;42.264;23.826;2023-02-10T12:58:13;95231.72;;;8.95;28.92
61870;BME280;47810;42.264;23.826;2023-02-10T13:00:42;95231.25;;;8.84;27.54
61870;BME280;47810;42.264;23.826;2023-02-10T13:03:20;95237.81;;;8.72;32.76
61870;BME280;47810;42.264;23.826;2023-02-10T13:05:59;95234.13;;;8.78;30.56
61870;BME280;47810;42.264;23.826;2023-02-10T13:08:32;95248.31;;;8.22;31.64
61870;BME280;47810;42.264;23.826;2023-02-10T13:11:01;95240.44;;;8.47;31.79
61870;BME280;47810;42.264;23.826;2023-02-10T13:13:31;95235.72;;;8.57;31.58
61870;BME280;47810;42.264;23.826;2023-02-10T13:15:59;95233.38;;;8.49;30.90
61870;BME280;47810;42.264;23.826;2023-02-10T13:18:30;95240.09;;;8.83;28.90
61870;BME280;47810;42.264;23.826;2023-02-10T13:21:05;95223.13;;;8.90;27.84
61870;BME280;47810;42.264;23.826;2023-02-10T13:29:15;95225.06;;;8.61;27.96
61870;BME280;47810;42.264;23.826;2023-02-10T13:31:56;95223.41;;;8.32;30.95
61870;BME280;47810;42.264;23.826;2023-02-10T13:34:28;95222.66;;;8.29;32.34
61870;BME280;47810;42.264;23.826;2023-02-10T13:39:21;95231.38;;;7.78;31.99
61870;BME280;47810;42.264;23.826;2023-02-10T13:41:49;95237.47;;;8.06;30.48
61870;BME280;47810;42.264;23.826;2023-02-10T13:44:31;95230.03;;;8.17;30.39
61870;BME280;47810;42.264;23.826;2023-02-10T13:47:23;95228.13;;;8.23;28.95
61870;BME280;47810;42.264;23.826;2023-02-10T13:52:30;95224.19;;;7.83;27.37
61870;BME280;47810;42.264;23.826;2023-02-10T13:57:28;95225.09;;;7.55;31.42
61870;BME280;47810;42.264;23.826;2023-02-10T14:00:04;95232.78;;;7.61;29.20
61870;BME280;47810;42.264;23.826;2023-02-10T14:02:30;95233.19;;;7.76;29.55
61870;BME280;47810;42.264;23.826;2023-02-10T14:04:56;95229.88;;;7.70;28.55
61870;BME280;47810;42.264;23.826;2023-02-10T14:12:30;95222.50;;;6.96;30.00
61870;BME280;47810;42.264;23.826;2023-02-10T14:14:56;95230.94;;;6.78;30.08
61870;BME280;47810;42.264;23.826;2023-02-10T14:17:38;95230.41;;;6.34;30.52
61870;BME280;47810;42.264;23.826;2023-02-10T14:20:13;95222.09;;;6.16;30.89
61870;BME280;47810;42.264;23.826;2023-02-10T14:22:39;95225.06;;;6.04;32.76
61870;BME280;47810;42.264;23.826;2023-02-10T14:27:34;95231.09;;;6.06;37.12
61870;BME280;47810;42.264;23.826;2023-02-10T14:30:04;95234.19;;;5.88;32.36
61870;BME280;47810;42.264;23.826;2023-02-10T14:32:46;95238.34;;;5.96;33.09
61870;BME280;47810;42.264;23.826;2023-02-10T14:35:16;95239.16;;;6.33;32.80
61870;BME280;47810;42.264;23.826;2023-02-10T14:37:49;95238.97;;;6.06;32.92
61870;BME280;47810;42.264;23.826;2023-02-10T14:40:15;95244.69;;;5.11;35.94
61870;BME280;47810;42.264;23.826;2023-02-10T14:42:41;95238.09;;;4.94;36.15
61870;BME280;47810;42.264;23.826;2023-02-10T14:45:16;95246.59;;;4.63;37.44
61870;BME280;47810;42.264;23.826;2023-02-10T14:47:43;95255.94;;;3.79;38.81
61870;BME280;47810;42.264;23.826;2023-02-10T14:50:31;95255.47;;;3.57;39.92
61870;BME280;47810;42.264;23.826;2023-02-10T14:52:57;95251.88;;;3.05;40.86
61870;BME280;47810;42.264;23.826;2023-02-10T14:57:56;95237.94;;;2.38;42.67
61870;BME280;47810;42.264;23.826;2023-02-10T15:00:22;95248.84;;;1.92;43.41
61870;BME280;47810;42.264;23.826;2023-02-10T15:02:48;95247.25;;;1.76;44.60
61870;BME280;47810;42.264;23.826;2023-02-10T15:05:18;95251.19;;;1.20;45.70
61870;BME280;47810;42.264;23.826;2023-02-10T15:07:45;95255.34;;;1.40;46.20
61870;BME280;47810;42.264;23.826;2023-02-10T15:12:38;95252.72;;;1.48;46.12
61870;BME280;47810;42.264;23.826;2023-02-10T15:30:47;95244.63;;;0.54;49.13
61870;BME280;47810;42.264;23.826;2023-02-10T15:33:24;95248.97;;;0.44;48.76
61870;BME280;47810;42.264;23.826;2023-02-10T15:36:33;95253.34;;;0.38;48.73
61870;BME280;47810;42.264;23.826;2023-02-10T15:41:18;95257.81;;;-0.09;49.73
61870;BME280;47810;42.264;23.826;2023-02-10T15:43:47;95256.91;;;0.03;50.44
61870;BME280;47810;42.264;23.826;2023-02-10T15:46:17;95256.09;;;-0.16;50.68
61870;BME280;47810;42.264;23.826;2023-02-10T15:48:43;95261.28;;;-0.13;51.41
61870;BME280;47810;42.264;23.826;2023-02-10T15:51:10;95262.16;;;-0.25;51.58
61870;BME280;47810;42.264;23.826;2023-02-10T15:53:41;95251.78;;;-0.25;52.13
61870;BME280;47810;42.264;23.826;2023-02-10T15:56:06;95272.53;;;-0.37;51.95
61870;BME280;47810;42.264;23.826;2023-02-10T15:58:32;95275.16;;;-0.40;52.19
61870;BME280;47810;42.264;23.826;2023-02-10T16:00:57;95279.44;;;-0.27;52.21
61870;BME280;47810;42.264;23.826;2023-02-10T16:03:23;95275.16;;;-0.37;53.31
61870;BME280;47810;42.264;23.826;2023-02-10T16:05:48;95275.97;;;-0.16;52.74
61870;BME280;47810;42.264;23.826;2023-02-10T16:08:20;95286.34;;;-0.16;53.63
61870;BME280;47810;42.264;23.826;2023-02-10T16:10:46;95286.41;;;-0.29;53.18
61870;BME280;47810;42.264;23.826;2023-02-10T16:13:13;95298.47;;;-0.55;52.80
61870;BME280;47810;42.264;23.826;2023-02-10T16:15:39;95303.66;;;-0.55;53.31
61870;BME280;47810;42.264;23.826;2023-02-10T16:18:04;95303.66;;;-0.55;54.64
61870;BME280;47810;42.264;23.826;2023-02-10T16:20:31;95313.19;;;-0.53;54.73
61870;BME280;47810;42.264;23.826;2023-02-10T16:22:57;95317.50;;;-0.65;54.78
61870;BME280;47810;42.264;23.826;2023-02-10T16:25:24;95316.63;;;-0.58;55.51
61870;BME280;47810;42.264;23.826;2023-02-10T16:27:50;95310.63;;;-0.54;55.67
61870;BME280;47810;42.264;23.826;2023-02-10T16:30:26;95319.22;;;-0.58;55.98
61870;BME280;47810;42.264;23.826;2023-02-10T16:32:52;95331.34;;;-0.66;54.68
61870;BME280;47810;42.264;23.826;2023-02-10T16:35:18;95333.09;;;-0.50;54.53
61870;BME280;47810;42.264;23.826;2023-02-10T16:37:43;95339.13;;;-0.53;54.38
61870;BME280;47810;42.264;23.826;2023-02-10T16:40:15;95333.09;;;-0.64;54.97
61870;BME280;47810;42.264;23.826;2023-02-10T16:42:43;95336.50;;;-0.73;55.85
61870;BME280;47810;42.264;23.826;2023-02-10T16:45:08;95343.44;;;-0.65;55.47